• Join FlightAware (Why Join?)
  • Login
  • US Flag 
10:18PM EDT


 

Airport Tracker/Info


-or-


 

Live Flight TrackerFlight Track Log ✈ EJM918 ✈ 18-Jun-2013 ✈ KHPN - KBDL

Flight Track Log - Related Links

Times and Time Zones

All times are in EDT time to prevent confusion due to time zone crossing. See the EJM918 flight status page for this flight to view local times or setup timezone preferences in your user account.

Time Position Orientation Groundspeed Altitude Reporting Facility
EDT Latitude Longitude Course Direction KTS MPH feet Rate Location/Type
05:50PM 41.1000 -73.7500 50° Northeast 193 222 2,800  Level New York TRACON
05:51PM 41.1000 -73.8167 270° West 206 237 3,800 3,240 Climbing New York TRACON
05:52PM 41.1500 -73.8833 315° West 225 259 9,000 3,120 Climbing New York TRACON
05:53PM 41.2000 -73.8500 27° Northeast 298 343 10,100 480 Climbing New York TRACON
05:54PM 41.2333 -73.7333 69° East 321 369 10,000 -60 Descending New York TRACON
05:55PM 41.2667 -73.6167 69° East 346 398 10,000  Level New York TRACON
05:56PM 41.4044 -73.3997 50° Northeast  Level FlightAware Approximate
05:56PM 41.3333 -73.5167 48° Northeast 334 384 10,000  Level New York TRACON
05:57PM 41.3833 -73.4500 45° Northeast 292 336 10,000  Level New York TRACON
05:58PM 41.4333 -73.3667 51° Northeast 291 335 10,000  Level New York TRACON
05:59PM 41.4928 -73.2964 42° Northeast 262 302 10,100  Climbing Boston Center
06:00PM 41.5450 -73.2472 35° Northeast 274 315 10,100  Level Boston Center
06:01PM 41.5978 -73.1675 48° Northeast 280 322 10,100 -480 Level Boston Center
06:02PM 41.6442 -73.0872 52° Northeast 277 319 9,200 -1,380 Descending Boston Center
06:03PM 41.6903 -73.0017 54° Northeast 288 331 7,400 -1,140 Descending Boston Center
06:04PM 41.7283 -72.9131 60° Northeast 292 336 7,100 -1,080 Descending Boston Center
06:05PM 41.7558 -72.8408 63° Northeast 268 308 5,500 -1,800 Descending Boston Center
06:06PM 41.8019 -72.7325 60° Northeast 271 312 3,300 -1,200 Descending Boston Center
06:07PM 41.8333 -72.6547 62° Northeast 198 228 2,800 -660 Descending Boston Center
06:08PM 41.8689 -72.6186 37° Northeast 173 199 2,000 -960 Descending Boston Center
06:09PM 41.9022 -72.6492 326° Northwest 141 162 900 -840 Descending Boston Center
06:10PM 41.9250 -72.6772 318° Northwest 120 138 300 -600 Descending Boston Center